createdAt,value
2022-12-28T00:01:37.328Z,13.00
2022-12-28T00:06:39.244Z,12.30
2022-12-28T00:11:43.767Z,13.50
2022-12-28T00:16:47.664Z,14.40
2022-12-28T00:21:49.591Z,16.40
2022-12-28T00:26:52.084Z,18.50
2022-12-28T00:31:54.144Z,20.80
2022-12-28T00:37:12.193Z,21.40
2022-12-28T00:42:15.193Z,24.50
2022-12-28T00:47:17.225Z,25.90
2022-12-28T00:52:19.119Z,26.60
2022-12-28T00:57:21.031Z,27.60
2022-12-28T01:06:13.908Z,26.80
2022-12-28T01:11:27.230Z,27.40
2022-12-28T01:16:34.848Z,29.20
2022-12-28T01:21:37.175Z,30.10
2022-12-28T01:26:39.083Z,28.50
2022-12-28T01:31:41.115Z,30.30
2022-12-28T01:36:43.105Z,29.80
2022-12-28T01:41:45.013Z,31.30
2022-12-28T01:46:50.896Z,30.00
2022-12-28T01:51:59.014Z,31.00
2022-12-28T01:57:01.228Z,29.50
2022-12-28T02:02:04.309Z,28.40
2022-12-28T02:07:06.746Z,29.70
2022-12-28T02:12:12.636Z,30.40
2022-12-28T02:17:14.765Z,30.70
2022-12-28T02:22:29.309Z,30.10
2022-12-28T02:28:05.452Z,27.40
2022-12-28T02:33:17.174Z,31.50
2022-12-28T02:38:34.603Z,31.90
2022-12-28T02:43:36.731Z,30.60
2022-12-28T02:49:00.466Z,30.00
2022-12-28T02:54:58.236Z,29.20
2022-12-28T03:00:19.488Z,28.30
2022-12-28T03:06:19.138Z,25.50
2022-12-28T03:11:32.690Z,28.90
2022-12-28T03:17:00.271Z,30.60
2022-12-28T03:22:22.507Z,29.50
2022-12-28T03:27:45.222Z,28.60
2022-12-28T03:32:50.737Z,28.90
2022-12-28T03:38:00.382Z,25.00
2022-12-28T03:43:32.722Z,24.50
2022-12-28T03:48:37.509Z,22.60
2022-12-28T03:53:42.669Z,20.60
2022-12-28T03:58:47.525Z,19.00
2022-12-28T04:03:50.587Z,18.30
2022-12-28T04:08:52.574Z,17.80
2022-12-28T04:13:55.906Z,17.90
2022-12-28T04:18:58.248Z,15.80
2022-12-28T04:24:00.279Z,13.80
2022-12-28T04:29:02.712Z,12.30
2022-12-28T04:34:20.759Z,12.80
2022-12-28T04:39:55.791Z,10.70
2022-12-28T04:44:59.080Z,11.40
2022-12-28T04:50:00.915Z,13.40
2022-12-28T04:55:02.781Z,13.80
2022-12-28T05:00:05.564Z,14.40
2022-12-28T05:05:08.002Z,14.90
2022-12-28T05:10:10.065Z,14.50
2022-12-28T05:15:12.017Z,14.30
2022-12-28T05:20:14.320Z,17.20
2022-12-28T05:25:16.309Z,16.70
2022-12-28T05:30:18.434Z,18.60
2022-12-28T05:35:20.476Z,17.80
2022-12-28T05:40:22.260Z,19.10
2022-12-28T05:45:24.193Z,17.20
2022-12-28T05:50:25.978Z,17.10
2022-12-28T05:55:27.795Z,16.60
2022-12-28T06:00:45.828Z,16.20
2022-12-28T06:05:47.703Z,14.50
2022-12-28T06:10:49.661Z,13.50
2022-12-28T06:15:51.497Z,13.50
2022-12-28T06:20:57.007Z,12.20
2022-12-28T06:26:00.510Z,12.30
2022-12-28T06:31:05.224Z,11.40
2022-12-28T06:36:22.350Z,12.00
2022-12-28T06:41:25.098Z,12.50
2022-12-28T06:46:29.640Z,15.40
2022-12-28T06:51:36.315Z,11.90
2022-12-28T06:56:39.417Z,8.50
2022-12-28T07:01:44.613Z,8.20
2022-12-28T07:06:46.857Z,7.80
2022-12-28T07:11:50.571Z,8.90
2022-12-28T07:16:52.357Z,7.90
2022-12-28T07:21:54.156Z,7.20
2022-12-28T07:26:56.212Z,8.30
2022-12-28T07:31:58.062Z,15.20
2022-12-28T07:36:59.950Z,10.70
2022-12-28T07:42:06.531Z,7.90
2022-12-28T07:47:08.480Z,8.40
2022-12-28T07:52:10.408Z,7.50
2022-12-28T07:57:12.328Z,9.10
2022-12-28T08:02:14.361Z,8.10
2022-12-28T08:07:16.339Z,8.80
2022-12-28T08:12:18.265Z,8.80
2022-12-28T08:17:21.381Z,9.60
2022-12-28T08:22:23.651Z,10.10
2022-12-28T08:27:26.034Z,8.80
2022-12-28T08:32:28.062Z,8.70
2022-12-28T08:37:29.921Z,10.40
2022-12-28T08:42:31.889Z,9.10
2022-12-28T08:47:33.806Z,10.00
2022-12-28T08:52:35.744Z,11.40
2022-12-28T08:57:37.801Z,12.80
2022-12-28T09:02:39.903Z,11.90
2022-12-28T09:07:41.981Z,11.30
2022-12-28T09:12:44.257Z,11.30
2022-12-28T09:17:46.056Z,11.50
2022-12-28T09:22:49.098Z,11.50
2022-12-28T09:27:55.996Z,14.60
2022-12-28T09:33:20.452Z,17.10
2022-12-28T09:38:22.611Z,15.90
2022-12-28T09:43:26.350Z,18.70
2022-12-28T09:48:30.107Z,17.80
2022-12-28T09:53:36.399Z,19.80
2022-12-28T09:58:46.413Z,18.60
2022-12-28T10:03:50.468Z,18.50
2022-12-28T10:08:58.901Z,13.10
2022-12-28T10:14:14.300Z,13.30
2022-12-28T10:19:19.408Z,12.70
2022-12-28T10:24:31.851Z,12.50
2022-12-28T10:29:34.621Z,11.00
2022-12-28T10:34:37.262Z,11.90
2022-12-28T10:39:39.435Z,10.40
2022-12-28T10:44:41.803Z,11.70
2022-12-28T10:50:10.500Z,10.10
2022-12-28T10:55:33.618Z,10.90
2022-12-28T11:00:35.603Z,9.50
2022-12-28T11:05:37.649Z,8.10
2022-12-28T11:10:40.371Z,7.20
2022-12-28T11:15:44.414Z,7.20
2022-12-28T11:20:49.593Z,5.40
2022-12-28T11:25:51.800Z,5.30
2022-12-28T11:30:54.338Z,6.10
2022-12-28T11:35:59.755Z,5.60
2022-12-28T11:41:01.975Z,5.90
2022-12-28T11:46:05.436Z,6.10
2022-12-28T11:51:28.528Z,6.90
2022-12-28T11:56:46.184Z,6.80
2022-12-28T12:01:50.028Z,6.00
2022-12-28T12:06:52.009Z,7.20
2022-12-28T12:12:21.125Z,6.10
2022-12-28T12:17:44.980Z,6.40
2022-12-28T12:22:56.747Z,7.10
2022-12-28T12:28:06.361Z,8.50
2022-12-28T12:33:16.244Z,7.70
2022-12-28T12:38:29.972Z,7.50
2022-12-28T12:43:36.053Z,7.30
2022-12-28T12:49:00.731Z,7.50
2022-12-28T12:54:19.477Z,6.90
2022-12-28T12:59:45.367Z,7.10
2022-12-28T13:04:47.301Z,8.60
2022-12-28T13:09:52.164Z,6.80
2022-12-28T13:15:07.527Z,5.90
2022-12-28T13:20:19.963Z,5.50
2022-12-28T13:25:30.578Z,5.50
2022-12-28T13:30:32.434Z,6.20
2022-12-28T13:35:34.389Z,5.90
2022-12-28T13:40:39.382Z,6.60
2022-12-28T13:45:44.939Z,6.20
2022-12-28T13:50:49.959Z,4.90
2022-12-28T13:56:04.582Z,6.00
2022-12-28T14:01:14.265Z,6.60
2022-12-28T14:06:17.570Z,6.60
2022-12-28T14:11:20.637Z,6.00
2022-12-28T14:16:23.116Z,6.30
2022-12-28T14:21:33.133Z,6.60
2022-12-28T14:26:38.238Z,7.00
2022-12-28T14:31:40.575Z,8.60
2022-12-28T14:36:47.639Z,9.00
2022-12-28T14:41:49.833Z,8.70
2022-12-28T14:46:54.378Z,7.50
2022-12-28T14:51:56.271Z,8.40
2022-12-28T14:57:19.337Z,7.40
2022-12-28T15:02:39.492Z,7.00
2022-12-28T15:07:41.545Z,6.90
2022-12-28T15:12:43.499Z,7.60
2022-12-28T15:17:46.533Z,7.50
2022-12-28T15:22:49.249Z,8.30
2022-12-28T15:27:52.059Z,7.80
2022-12-28T15:32:54.033Z,8.80
2022-12-28T15:37:56.662Z,7.80
2022-12-28T15:42:58.625Z,8.60
2022-12-28T15:48:00.558Z,7.20
2022-12-28T15:53:02.373Z,7.60
2022-12-28T15:58:04.415Z,6.50
2022-12-28T16:03:06.369Z,8.00
2022-12-28T16:08:08.346Z,6.90
2022-12-28T16:13:10.665Z,6.60
2022-12-28T16:18:12.595Z,7.00
2022-12-28T16:23:14.450Z,6.80
2022-12-28T16:28:16.317Z,7.20
2022-12-28T16:33:18.868Z,7.00
2022-12-28T16:38:23.142Z,7.10
2022-12-28T16:43:25.426Z,6.70
2022-12-28T16:48:27.583Z,6.40
2022-12-28T16:53:30.297Z,6.90
2022-12-28T16:58:32.796Z,6.70
2022-12-28T17:03:35.350Z,6.50
2022-12-28T17:08:37.425Z,7.50
2022-12-28T17:13:40.498Z,6.80
2022-12-28T17:18:42.436Z,7.00
2022-12-28T17:23:44.472Z,6.60
2022-12-28T17:28:46.705Z,5.70
2022-12-28T17:33:53.623Z,6.10
2022-12-28T17:38:55.610Z,5.50
2022-12-28T17:43:59.496Z,5.40
2022-12-28T17:49:02.364Z,6.20
2022-12-28T17:54:04.306Z,6.10
2022-12-28T17:59:06.598Z,6.10
2022-12-28T18:04:09.347Z,6.20
2022-12-28T18:09:11.382Z,6.00
2022-12-28T18:14:14.825Z,7.00
2022-12-28T18:19:16.725Z,7.60
2022-12-28T18:24:20.841Z,7.20
2022-12-28T18:29:22.907Z,6.50
2022-12-28T18:34:25.013Z,7.60
2022-12-28T18:39:26.824Z,7.80
2022-12-28T18:44:29.205Z,7.90
2022-12-28T18:49:31.161Z,8.40
2022-12-28T18:54:33.673Z,9.00
2022-12-28T18:59:35.634Z,9.20
2022-12-28T19:04:37.712Z,7.60
2022-12-28T19:09:39.670Z,8.90
2022-12-28T19:14:41.663Z,8.60
2022-12-28T19:19:43.568Z,9.40
2022-12-28T19:24:45.599Z,9.40
2022-12-28T19:29:50.544Z,9.30
2022-12-28T19:34:53.506Z,8.90
2022-12-28T19:39:57.911Z,9.10
2022-12-28T19:45:04.854Z,11.40
2022-12-28T19:50:10.132Z,9.60
2022-12-28T19:55:12.103Z,9.30
2022-12-28T20:00:14.700Z,10.10
2022-12-28T20:05:18.137Z,10.10
2022-12-28T20:10:21.375Z,10.00
2022-12-28T20:15:24.648Z,8.60
2022-12-28T20:20:27.584Z,8.00
2022-12-28T20:25:32.460Z,8.70
2022-12-28T20:30:34.354Z,10.70
2022-12-28T20:35:36.116Z,9.40
2022-12-28T20:40:38.138Z,10.10
2022-12-28T20:45:40.127Z,9.00
2022-12-28T20:50:42.409Z,10.90
2022-12-28T20:55:45.229Z,12.20
2022-12-28T21:00:47.911Z,12.20
2022-12-28T21:05:53.127Z,12.40
2022-12-28T21:10:55.168Z,13.60
2022-12-28T21:15:57.954Z,14.30
2022-12-28T21:21:01.206Z,14.30
2022-12-28T21:26:05.393Z,14.20
2022-12-28T21:31:07.471Z,35.60
2022-12-28T21:36:20.349Z,16.30
2022-12-28T21:41:41.435Z,15.60
2022-12-28T21:46:45.261Z,16.10
2022-12-28T21:51:47.233Z,16.30
2022-12-28T21:56:53.197Z,16.10
2022-12-28T22:02:13.931Z,16.40
2022-12-28T22:07:18.432Z,18.70
2022-12-28T22:12:39.643Z,20.30
2022-12-28T22:17:42.962Z,21.00
2022-12-28T22:22:44.849Z,20.10
2022-12-28T22:27:46.874Z,17.80
2022-12-28T22:32:48.722Z,18.50
2022-12-28T22:37:50.618Z,17.00
2022-12-28T22:42:52.831Z,15.80
2022-12-28T22:47:59.267Z,16.30
2022-12-28T22:53:01.102Z,18.60
2022-12-28T22:58:03.007Z,17.70
2022-12-28T23:03:06.723Z,20.20
2022-12-28T23:08:08.664Z,17.70
2022-12-28T23:13:10.537Z,17.20
2022-12-28T23:18:31.083Z,18.20
2022-12-28T23:23:51.298Z,18.80
2022-12-28T23:28:53.246Z,18.10
2022-12-28T23:33:55.116Z,16.10
2022-12-28T23:38:56.975Z,16.90
2022-12-28T23:43:58.833Z,16.20
2022-12-28T23:49:00.720Z,13.40
2022-12-28T23:54:02.671Z,12.20
2022-12-28T23:59:05.487Z,13.00
